createdAt,value
2023-01-27T00:00:54.306Z,27.58
2023-01-27T00:03:21.560Z,33.85
2023-01-27T00:05:48.638Z,28.85
2023-01-27T00:08:15.608Z,25.25
2023-01-27T00:10:42.670Z,24.63
2023-01-27T00:13:31.862Z,24.80
2023-01-27T00:15:58.565Z,20.30
2023-01-27T00:18:25.688Z,18.88
2023-01-27T00:21:10.987Z,24.10
2023-01-27T00:23:56.200Z,21.40
2023-01-27T00:28:49.903Z,19.13
2023-01-27T00:31:37.282Z,17.08
2023-01-27T00:34:10.684Z,18.52
2023-01-27T00:36:40.938Z,19.23
2023-01-27T00:39:09.602Z,17.75
2023-01-27T00:41:36.376Z,18.20
2023-01-27T00:44:05.449Z,17.30
2023-01-27T00:46:32.989Z,16.17
2023-01-27T00:49:00.953Z,16.73
2023-01-27T00:51:27.609Z,17.25
2023-01-27T00:53:54.329Z,17.80
2023-01-27T00:56:21.055Z,18.70
2023-01-27T00:58:48.117Z,20.67
2023-01-27T01:01:17.072Z,21.33
2023-01-27T01:03:44.364Z,22.50
2023-01-27T01:06:13.347Z,25.77
2023-01-27T01:08:40.443Z,24.17
2023-01-27T01:11:08.946Z,21.63
2023-01-27T01:13:35.996Z,21.83
2023-01-27T01:16:17.516Z,24.13
2023-01-27T01:18:44.523Z,21.35
2023-01-27T01:21:12.748Z,19.83
2023-01-27T01:23:41.697Z,20.33
2023-01-27T01:26:14.304Z,21.95
2023-01-27T01:28:41.150Z,21.00
2023-01-27T01:31:10.823Z,21.48
2023-01-27T01:33:38.615Z,22.83
2023-01-27T01:36:10.964Z,22.70
2023-01-27T01:38:37.948Z,21.00
2023-01-27T01:41:07.641Z,20.92
2023-01-27T01:43:34.991Z,19.10
2023-01-27T01:46:02.724Z,21.88
2023-01-27T01:48:42.493Z,25.02
2023-01-27T01:51:22.628Z,22.40
2023-01-27T01:54:12.062Z,24.48
2023-01-27T01:56:51.184Z,25.58
2023-01-27T01:59:23.023Z,25.60
2023-01-27T02:01:52.811Z,24.75
2023-01-27T02:04:25.068Z,24.27
2023-01-27T02:07:03.070Z,24.80
2023-01-27T02:09:30.010Z,24.90
2023-01-27T02:11:58.943Z,23.98
2023-01-27T02:14:25.616Z,26.38
2023-01-27T02:16:53.157Z,23.80
2023-01-27T02:19:32.345Z,24.35
2023-01-27T02:22:01.447Z,21.17
2023-01-27T02:24:37.012Z,28.10
2023-01-27T02:27:04.082Z,22.08
2023-01-27T02:29:30.787Z,21.90
2023-01-27T02:31:57.466Z,22.67
2023-01-27T02:34:29.633Z,24.15
2023-01-27T02:37:01.197Z,25.20
2023-01-27T02:39:33.827Z,25.73
2023-01-27T02:42:04.035Z,23.65
2023-01-27T02:44:31.439Z,24.00
2023-01-27T02:46:58.103Z,22.27
2023-01-27T02:49:25.452Z,23.55
2023-01-27T02:51:52.066Z,24.92
2023-01-27T02:54:19.029Z,21.25
2023-01-27T02:56:45.959Z,24.38
2023-01-27T02:59:15.165Z,22.52
2023-01-27T03:01:42.059Z,23.05
2023-01-27T03:04:11.647Z,23.17
2023-01-27T03:06:38.875Z,24.48
2023-01-27T03:09:05.598Z,23.17
2023-01-27T03:11:50.734Z,22.35
2023-01-27T03:14:18.545Z,19.98
2023-01-27T03:17:05.927Z,22.65
2023-01-27T03:22:01.767Z,20.52
2023-01-27T03:24:29.836Z,18.45
2023-01-27T03:26:59.835Z,17.85
2023-01-27T03:29:56.870Z,18.55
2023-01-27T03:32:25.734Z,20.30
2023-01-27T03:35:14.349Z,18.38
2023-01-27T03:38:01.209Z,18.58
2023-01-27T03:40:46.897Z,17.33
2023-01-27T03:43:32.068Z,17.55
2023-01-27T03:46:17.942Z,16.80
2023-01-27T03:48:49.451Z,17.30
2023-01-27T03:51:16.264Z,15.40
2023-01-27T03:53:42.891Z,17.67
2023-01-27T03:56:09.551Z,17.55
2023-01-27T03:58:37.046Z,17.17
2023-01-27T04:01:13.640Z,15.60
2023-01-27T04:03:59.594Z,15.23
2023-01-27T04:06:47.815Z,14.77
2023-01-27T04:09:20.677Z,17.00
2023-01-27T04:11:58.338Z,18.30
2023-01-27T04:14:28.338Z,16.35
2023-01-27T04:17:01.223Z,17.80
2023-01-27T04:19:27.990Z,20.02
2023-01-27T04:21:55.426Z,17.73
2023-01-27T04:24:22.463Z,16.98
2023-01-27T04:27:01.369Z,17.75
2023-01-27T04:29:31.224Z,18.02
2023-01-27T04:31:59.103Z,18.23
2023-01-27T04:34:27.324Z,15.90
2023-01-27T04:36:55.069Z,15.90
2023-01-27T04:39:21.769Z,15.32
2023-01-27T04:41:49.603Z,16.85
2023-01-27T04:44:16.375Z,18.20
2023-01-27T04:46:42.953Z,16.20
2023-01-27T04:49:09.692Z,16.70
2023-01-27T04:51:36.464Z,16.83
2023-01-27T04:54:05.320Z,16.83
2023-01-27T04:56:41.195Z,17.40
2023-01-27T04:59:11.731Z,18.95
2023-01-27T05:01:38.446Z,17.40
2023-01-27T05:04:05.261Z,17.35
2023-01-27T05:06:32.198Z,20.55
2023-01-27T05:08:58.814Z,20.80
2023-01-27T05:11:25.597Z,18.55
2023-01-27T05:13:52.679Z,19.20
2023-01-27T05:16:24.323Z,18.38
2023-01-27T05:18:52.435Z,17.63
2023-01-27T05:21:21.674Z,17.55
2023-01-27T05:23:49.010Z,17.20
2023-01-27T05:26:17.482Z,18.90
2023-01-27T05:28:46.008Z,18.55
2023-01-27T05:31:21.704Z,16.13
2023-01-27T05:33:51.379Z,16.63
2023-01-27T05:36:20.522Z,15.45
2023-01-27T05:38:47.737Z,17.55
2023-01-27T05:41:15.947Z,16.20
2023-01-27T05:43:44.203Z,14.05
2023-01-27T05:46:22.715Z,15.55
2023-01-27T05:48:52.163Z,13.35
2023-01-27T05:51:21.451Z,14.63
2023-01-27T05:53:48.657Z,15.35
2023-01-27T05:56:18.981Z,14.77
2023-01-27T05:58:46.073Z,14.30
2023-01-27T06:01:15.545Z,12.40
2023-01-27T06:03:43.050Z,7.80
2023-01-27T06:06:10.352Z,11.48
2023-01-27T06:08:37.858Z,11.32
2023-01-27T06:11:05.557Z,11.65
2023-01-27T06:13:35.519Z,11.57
2023-01-27T06:16:04.018Z,10.80
2023-01-27T06:18:30.726Z,11.13
2023-01-27T06:20:58.846Z,10.18
2023-01-27T06:23:27.306Z,11.68
2023-01-27T06:25:54.731Z,10.60
2023-01-27T06:28:30.004Z,10.50
2023-01-27T06:31:03.912Z,10.50
2023-01-27T06:33:30.595Z,9.73
2023-01-27T06:36:21.483Z,9.43
2023-01-27T06:38:49.033Z,9.50
2023-01-27T06:41:15.801Z,10.20
2023-01-27T06:43:42.487Z,8.77
2023-01-27T06:46:09.367Z,9.90
2023-01-27T06:48:37.664Z,8.82
2023-01-27T06:51:04.463Z,9.50
2023-01-27T06:53:32.846Z,8.32
2023-01-27T06:56:01.237Z,8.20
2023-01-27T06:58:28.329Z,7.90
2023-01-27T07:00:55.895Z,7.93
2023-01-27T07:03:23.121Z,7.70
2023-01-27T07:05:49.864Z,8.02
2023-01-27T07:08:16.588Z,8.02
2023-01-27T07:10:43.158Z,9.77
2023-01-27T07:13:12.449Z,6.65
2023-01-27T07:15:39.367Z,9.00
2023-01-27T07:18:06.484Z,8.75
2023-01-27T07:20:33.633Z,10.18
2023-01-27T07:23:01.888Z,8.00
2023-01-27T07:25:30.580Z,8.15
2023-01-27T07:27:58.298Z,8.73
2023-01-27T07:30:25.692Z,9.65
2023-01-27T07:32:52.427Z,8.43
2023-01-27T07:35:19.157Z,8.60
2023-01-27T07:37:45.766Z,8.65
2023-01-27T07:40:13.675Z,8.25
2023-01-27T07:42:41.031Z,7.93
2023-01-27T07:45:09.411Z,8.13
2023-01-27T07:47:35.982Z,8.38
2023-01-27T07:50:02.697Z,9.95
2023-01-27T07:52:29.263Z,10.73
2023-01-27T07:54:55.851Z,8.98
2023-01-27T07:57:22.503Z,10.27
2023-01-27T07:59:49.178Z,9.95
2023-01-27T08:02:15.818Z,10.23
2023-01-27T08:04:52.550Z,12.07
2023-01-27T08:07:20.422Z,10.73
2023-01-27T08:09:47.046Z,9.88
2023-01-27T08:12:13.846Z,10.50
2023-01-27T08:14:40.510Z,10.85
2023-01-27T08:17:07.098Z,10.32
2023-01-27T08:19:33.750Z,12.10
2023-01-27T08:22:00.319Z,10.98
2023-01-27T08:24:27.230Z,8.80
2023-01-27T08:26:54.012Z,9.00
2023-01-27T08:29:20.615Z,9.68
2023-01-27T08:31:48.479Z,8.43
2023-01-27T08:34:16.846Z,8.77
2023-01-27T08:36:43.551Z,8.48
2023-01-27T08:39:10.999Z,8.63
2023-01-27T08:41:38.477Z,9.75
2023-01-27T08:44:05.590Z,8.63
2023-01-27T08:46:32.500Z,7.65
2023-01-27T08:48:59.095Z,8.00
2023-01-27T08:51:25.826Z,8.13
2023-01-27T08:53:52.631Z,8.95
2023-01-27T08:56:19.394Z,9.00
2023-01-27T08:58:48.323Z,7.90
2023-01-27T09:01:16.001Z,12.07
2023-01-27T09:03:42.734Z,8.90
2023-01-27T09:06:12.025Z,8.95
2023-01-27T09:08:39.610Z,8.80
2023-01-27T09:11:14.639Z,8.40
2023-01-27T09:13:41.597Z,8.65
2023-01-27T09:16:08.711Z,45.70
2023-01-27T09:18:35.662Z,7.90
2023-01-27T09:21:05.659Z,7.35
2023-01-27T09:23:33.718Z,9.23
2023-01-27T09:26:00.408Z,8.40
2023-01-27T09:28:27.204Z,17.23
2023-01-27T09:30:58.093Z,7.47
2023-01-27T09:33:25.987Z,7.50
2023-01-27T09:35:59.346Z,6.10
2023-01-27T09:38:27.636Z,7.70
2023-01-27T09:41:16.943Z,12.00
2023-01-27T09:44:01.654Z,6.72
2023-01-27T09:46:54.991Z,6.90
2023-01-27T09:49:42.098Z,6.20
2023-01-27T09:52:45.442Z,6.60
2023-01-27T09:55:13.505Z,6.53
2023-01-27T09:57:40.372Z,5.53
2023-01-27T10:00:48.461Z,5.70
2023-01-27T10:03:57.900Z,6.05
2023-01-27T10:07:15.370Z,5.28
2023-01-27T10:10:08.007Z,5.85
2023-01-27T10:12:44.212Z,5.10
2023-01-27T10:15:48.632Z,7.75
2023-01-27T10:18:38.956Z,5.65
2023-01-27T10:21:14.424Z,5.88
2023-01-27T10:23:47.168Z,6.57
2023-01-27T10:26:39.504Z,5.95
2023-01-27T10:29:35.796Z,6.75
2023-01-27T10:32:19.296Z,7.30
2023-01-27T10:35:02.985Z,7.40
2023-01-27T10:37:48.268Z,7.60
2023-01-27T10:43:27.384Z,8.70
2023-01-27T10:46:23.261Z,8.60
2023-01-27T10:49:22.841Z,8.27
2023-01-27T10:52:19.320Z,7.85
2023-01-27T10:55:07.081Z,8.48
2023-01-27T10:57:41.118Z,9.45
2023-01-27T11:01:05.076Z,9.27
2023-01-27T11:03:33.448Z,10.27
2023-01-27T11:06:04.579Z,9.93
2023-01-27T11:08:36.470Z,9.90
2023-01-27T11:11:27.112Z,9.93
2023-01-27T11:14:02.861Z,9.50
2023-01-27T11:16:36.713Z,9.38
2023-01-27T11:19:34.557Z,9.63
2023-01-27T11:22:08.298Z,7.60
2023-01-27T11:25:36.838Z,8.20
2023-01-27T11:28:45.302Z,11.73
2023-01-27T11:31:22.508Z,10.68
2023-01-27T11:34:03.761Z,10.20
2023-01-27T11:36:31.248Z,10.07
2023-01-27T11:38:58.472Z,11.02
2023-01-27T11:41:25.878Z,11.73
2023-01-27T11:43:53.164Z,11.48
2023-01-27T11:46:26.653Z,12.05
2023-01-27T11:48:57.006Z,12.07
2023-01-27T11:51:29.899Z,11.75
2023-01-27T11:54:03.350Z,12.02
2023-01-27T11:56:31.811Z,10.05
2023-01-27T11:59:08.762Z,12.05
2023-01-27T12:02:06.860Z,11.60
2023-01-27T12:04:46.312Z,10.13
2023-01-27T12:07:19.999Z,9.55
2023-01-27T12:09:46.726Z,9.30
2023-01-27T12:12:25.752Z,9.82
2023-01-27T12:14:58.439Z,10.50
2023-01-27T12:17:46.039Z,10.77
2023-01-27T12:20:21.528Z,10.55
2023-01-27T12:22:52.837Z,10.55
2023-01-27T12:25:27.780Z,11.35
2023-01-27T12:30:39.100Z,10.60
2023-01-27T12:33:20.416Z,11.52
2023-01-27T12:35:49.971Z,11.18
2023-01-27T12:38:24.208Z,11.60
2023-01-27T12:41:07.225Z,10.70
2023-01-27T12:43:51.825Z,11.20
2023-01-27T12:46:20.925Z,13.20
2023-01-27T12:48:53.054Z,10.75
2023-01-27T12:51:36.302Z,11.32
2023-01-27T12:54:25.958Z,11.45
2023-01-27T12:56:54.511Z,12.13
2023-01-27T12:59:24.091Z,11.40
2023-01-27T13:02:17.786Z,12.45
2023-01-27T13:04:51.532Z,12.82
2023-01-27T13:07:23.871Z,12.23
2023-01-27T13:09:55.398Z,11.40
2023-01-27T13:12:31.178Z,11.75
2023-01-27T13:15:06.211Z,10.27
2023-01-27T13:17:38.015Z,11.20
2023-01-27T13:20:15.008Z,10.80
2023-01-27T13:22:46.469Z,8.65
2023-01-27T13:25:24.221Z,9.60
2023-01-27T13:27:55.108Z,8.60
2023-01-27T13:30:30.921Z,7.10
2023-01-27T13:33:06.587Z,8.30
2023-01-27T13:35:47.375Z,7.85
2023-01-27T13:38:29.069Z,8.23
2023-01-27T13:40:56.675Z,8.43
2023-01-27T13:43:29.231Z,7.57
2023-01-27T13:46:08.880Z,6.78
2023-01-27T13:48:42.161Z,6.65
2023-01-27T13:51:15.418Z,5.78
2023-01-27T13:53:43.791Z,5.80
2023-01-27T13:56:19.682Z,4.57
2023-01-27T13:59:03.154Z,4.43
2023-01-27T14:01:42.909Z,5.15
2023-01-27T14:04:36.661Z,5.03
2023-01-27T14:07:22.500Z,5.05
2023-01-27T14:10:17.310Z,4.78
2023-01-27T14:13:07.847Z,3.93
2023-01-27T14:16:18.805Z,3.55
2023-01-27T14:19:24.501Z,3.33
2023-01-27T14:22:03.307Z,3.90
2023-01-27T14:24:40.326Z,3.72
2023-01-27T14:27:40.110Z,3.90
2023-01-27T14:30:25.420Z,3.63
2023-01-27T14:33:20.338Z,3.80
2023-01-27T14:35:59.023Z,3.75
2023-01-27T14:38:43.914Z,4.05
2023-01-27T14:41:39.210Z,4.28
2023-01-27T14:44:22.035Z,4.82
2023-01-27T14:46:56.199Z,4.55
2023-01-27T14:50:06.617Z,5.82
2023-01-27T14:52:49.579Z,5.50
2023-01-27T14:55:32.733Z,4.68
2023-01-27T14:58:20.775Z,4.30
2023-01-27T15:01:08.285Z,4.00
2023-01-27T15:03:54.009Z,5.03
2023-01-27T15:06:37.629Z,6.10
2023-01-27T15:09:25.938Z,45.42
2023-01-27T15:12:15.652Z,4.88
2023-01-27T15:15:09.936Z,5.10
2023-01-27T15:18:20.779Z,6.15
2023-01-27T15:21:08.165Z,5.53
2023-01-27T15:24:02.649Z,5.30
2023-01-27T15:26:31.466Z,30.52
2023-01-27T15:28:59.607Z,4.35
2023-01-27T15:31:28.890Z,10.68
2023-01-27T15:34:04.758Z,6.35
2023-01-27T15:36:36.169Z,5.07
2023-01-27T15:39:09.326Z,47.33
2023-01-27T15:41:36.668Z,4.70
2023-01-27T15:44:30.783Z,14.60
2023-01-27T15:47:35.388Z,6.15
2023-01-27T15:50:24.390Z,8.77
2023-01-27T15:52:51.592Z,10.00
2023-01-27T15:55:34.461Z,35.00
2023-01-27T15:58:06.102Z,6.82
2023-01-27T16:00:38.946Z,14.98
2023-01-27T16:03:20.645Z,9.40
2023-01-27T16:05:56.375Z,7.20
2023-01-27T16:08:29.639Z,47.35
2023-01-27T16:11:23.664Z,8.50
2023-01-27T16:13:50.718Z,11.25
2023-01-27T16:16:17.321Z,6.38
2023-01-27T16:19:11.636Z,6.40
2023-01-27T16:21:54.207Z,5.30
2023-01-27T16:24:30.178Z,9.32
2023-01-27T16:27:24.536Z,9.43
2023-01-27T16:29:59.005Z,6.68
2023-01-27T16:32:35.980Z,6.03
2023-01-27T16:35:16.100Z,6.32
2023-01-27T16:38:04.766Z,7.15
2023-01-27T16:40:34.203Z,6.28
2023-01-27T16:43:13.992Z,7.22
2023-01-27T16:45:52.683Z,7.65
2023-01-27T16:48:32.263Z,8.40
2023-01-27T16:51:12.775Z,7.40
2023-01-27T16:53:44.475Z,6.55
2023-01-27T16:56:20.619Z,6.07
2023-01-27T16:58:51.000Z,5.53
2023-01-27T17:01:26.439Z,4.30
2023-01-27T17:03:56.953Z,5.38
2023-01-27T17:06:30.156Z,5.55
2023-01-27T17:08:57.241Z,6.50
2023-01-27T17:11:30.092Z,5.68
2023-01-27T17:14:02.742Z,5.40
2023-01-27T17:16:33.200Z,5.38
2023-01-27T17:19:09.712Z,5.90
2023-01-27T17:21:43.376Z,5.95
2023-01-27T17:24:26.450Z,8.43
2023-01-27T17:27:03.528Z,6.60
2023-01-27T17:29:35.913Z,6.50
2023-01-27T17:32:04.247Z,6.20
2023-01-27T17:34:41.213Z,6.53
2023-01-27T17:37:15.945Z,6.88
2023-01-27T17:39:43.397Z,6.47
2023-01-27T17:42:16.710Z,7.47
2023-01-27T17:44:44.649Z,7.22
2023-01-27T17:47:19.687Z,7.18
2023-01-27T17:49:49.095Z,7.32
2023-01-27T17:52:21.099Z,7.78
2023-01-27T17:54:49.075Z,7.25
2023-01-27T17:57:32.401Z,6.68
2023-01-27T18:00:15.809Z,6.43
2023-01-27T18:02:52.995Z,7.13
2023-01-27T18:05:26.003Z,5.55
2023-01-27T18:07:53.375Z,28.65
2023-01-27T18:10:31.775Z,7.03
2023-01-27T18:13:31.433Z,6.88
2023-01-27T18:16:19.614Z,6.85
2023-01-27T18:18:47.313Z,7.68
2023-01-27T18:21:24.038Z,9.30
2023-01-27T18:23:58.872Z,15.13
2023-01-27T18:29:07.421Z,6.50
2023-01-27T18:31:37.605Z,9.35
2023-01-27T18:34:07.359Z,8.32
2023-01-27T18:36:36.456Z,7.40
2023-01-27T18:39:22.585Z,9.55
2023-01-27T18:41:52.243Z,9.55
2023-01-27T18:44:18.911Z,9.13
2023-01-27T18:46:45.609Z,6.05
2023-01-27T18:49:12.584Z,9.15
2023-01-27T18:51:39.293Z,9.07
2023-01-27T18:54:09.161Z,9.05
2023-01-27T18:56:35.766Z,10.90
2023-01-27T18:59:02.380Z,15.40
2023-01-27T19:01:29.729Z,8.80
2023-01-27T19:03:58.203Z,9.70
2023-01-27T19:06:26.215Z,7.90
2023-01-27T19:08:54.819Z,8.88
2023-01-27T19:11:21.532Z,10.63
2023-01-27T19:13:49.697Z,6.03
2023-01-27T19:16:17.868Z,6.43
2023-01-27T19:18:45.244Z,7.63
2023-01-27T19:21:14.222Z,8.52
2023-01-27T19:23:44.329Z,8.15
2023-01-27T19:26:22.516Z,8.13
2023-01-27T19:28:57.526Z,7.97
2023-01-27T19:31:24.410Z,9.02
2023-01-27T19:33:51.266Z,8.18
2023-01-27T19:36:22.364Z,7.85
2023-01-27T19:38:55.803Z,7.78
2023-01-27T19:41:23.722Z,5.60
2023-01-27T19:43:50.365Z,7.90
2023-01-27T19:46:22.176Z,6.80
2023-01-27T19:48:52.161Z,7.65
2023-01-27T19:51:19.288Z,7.53
2023-01-27T19:53:46.482Z,6.63
2023-01-27T19:56:21.843Z,7.65
2023-01-27T19:58:51.791Z,7.22
2023-01-27T20:01:24.347Z,7.15
2023-01-27T20:03:51.976Z,7.10
2023-01-27T20:06:30.761Z,6.43
2023-01-27T20:08:59.696Z,7.10
2023-01-27T20:11:36.661Z,5.65
2023-01-27T20:14:07.447Z,5.68
2023-01-27T20:16:34.204Z,7.03
2023-01-27T20:19:00.808Z,7.43
2023-01-27T20:21:28.500Z,7.35
2023-01-27T20:23:55.237Z,7.53
2023-01-27T20:26:22.613Z,7.75
2023-01-27T20:28:49.990Z,6.82
2023-01-27T20:31:19.680Z,7.97
2023-01-27T20:33:49.873Z,7.82
2023-01-27T20:36:23.684Z,8.48
2023-01-27T20:38:51.512Z,8.88
2023-01-27T20:41:21.026Z,8.07
2023-01-27T20:43:48.221Z,8.18
2023-01-27T20:46:17.410Z,6.85
2023-01-27T20:48:44.425Z,7.72
2023-01-27T20:51:14.745Z,6.47
2023-01-27T20:53:46.115Z,8.30
2023-01-27T20:56:22.475Z,8.55
2023-01-27T20:58:49.959Z,8.18
2023-01-27T21:01:24.653Z,8.85
2023-01-27T21:03:51.764Z,7.80
2023-01-27T21:06:22.350Z,8.05
2023-01-27T21:08:49.473Z,8.15
2023-01-27T21:11:19.479Z,8.52
2023-01-27T21:13:46.803Z,9.20
2023-01-27T21:16:14.221Z,9.32
2023-01-27T21:18:41.095Z,10.20
2023-01-27T21:21:07.795Z,11.35
2023-01-27T21:23:34.820Z,10.95
2023-01-27T21:26:05.962Z,11.13
2023-01-27T21:28:33.863Z,11.82
2023-01-27T21:31:13.458Z,12.43
2023-01-27T21:33:40.432Z,12.98
2023-01-27T21:36:10.571Z,12.02
2023-01-27T21:38:37.986Z,13.38
2023-01-27T21:41:43.540Z,12.35
2023-01-27T21:44:34.960Z,12.40
2023-01-27T21:47:01.851Z,12.07
2023-01-27T21:49:28.452Z,12.70
2023-01-27T21:51:55.212Z,13.60
2023-01-27T21:54:21.919Z,12.65
2023-01-27T21:56:48.553Z,12.75
2023-01-27T21:59:15.231Z,13.32
2023-01-27T22:01:41.851Z,12.77
2023-01-27T22:04:08.657Z,13.48
2023-01-27T22:06:37.022Z,12.90
2023-01-27T22:09:03.823Z,13.07
2023-01-27T22:11:30.439Z,12.10
2023-01-27T22:13:57.241Z,12.63
2023-01-27T22:16:25.815Z,12.80
2023-01-27T22:18:52.575Z,11.95
2023-01-27T22:21:19.254Z,12.27
2023-01-27T22:23:46.499Z,11.20
2023-01-27T22:26:13.119Z,12.73
2023-01-27T22:28:39.728Z,11.80
2023-01-27T22:31:06.535Z,11.00
2023-01-27T22:33:33.665Z,12.85
2023-01-27T22:36:02.323Z,12.52
2023-01-27T22:38:29.004Z,13.40
2023-01-27T22:40:57.547Z,13.25
2023-01-27T22:43:24.255Z,12.43
2023-01-27T22:45:50.892Z,12.38
2023-01-27T22:48:17.749Z,12.60
2023-01-27T22:50:44.470Z,12.52
2023-01-27T22:53:11.503Z,12.63
2023-01-27T22:55:38.103Z,12.95
2023-01-27T22:58:04.713Z,11.65
2023-01-27T23:00:31.327Z,14.05
2023-01-27T23:02:57.968Z,13.30
2023-01-27T23:05:24.636Z,13.15
2023-01-27T23:07:51.214Z,12.70
2023-01-27T23:10:18.217Z,13.10
2023-01-27T23:12:45.130Z,13.10
2023-01-27T23:15:11.880Z,12.75
2023-01-27T23:17:38.574Z,14.20
2023-01-27T23:20:05.773Z,14.15
2023-01-27T23:22:32.553Z,13.73
2023-01-27T23:24:59.286Z,13.48
2023-01-27T23:27:28.379Z,13.52
2023-01-27T23:29:55.264Z,14.27
2023-01-27T23:32:21.854Z,14.13
2023-01-27T23:34:48.501Z,13.63
2023-01-27T23:37:15.153Z,13.70
2023-01-27T23:39:45.709Z,13.90
2023-01-27T23:42:12.355Z,15.02
2023-01-27T23:44:38.943Z,14.05
2023-01-27T23:47:05.755Z,14.70
2023-01-27T23:49:32.371Z,15.10
2023-01-27T23:51:59.277Z,14.80
2023-01-27T23:54:25.894Z,14.20
2023-01-27T23:56:52.567Z,13.68
2023-01-27T23:59:19.231Z,13.25
